sensor_id;sensor_type;location;lat;lon;timestamp;temperature;humidity
1277;DHT22;631;51.024;13.826;2023-03-01T00:00:54;-2.50;99.90
1277;DHT22;631;51.024;13.826;2023-03-01T00:03:25;-2.50;99.90
1277;DHT22;631;51.024;13.826;2023-03-01T00:05:51;-2.50;99.90
1277;DHT22;631;51.024;13.826;2023-03-01T00:08:16;-2.50;99.90
1277;DHT22;631;51.024;13.826;2023-03-01T00:10:42;-2.60;99.90
1277;DHT22;631;51.024;13.826;2023-03-01T00:13:08;-2.60;99.90
1277;DHT22;631;51.024;13.826;2023-03-01T00:15:37;-2.60;99.90
1277;DHT22;631;51.024;13.826;2023-03-01T00:18:02;-2.60;99.90
1277;DHT22;631;51.024;13.826;2023-03-01T00:20:28;-2.60;99.90
1277;DHT22;631;51.024;13.826;2023-03-01T00:22:54;-2.70;99.90
1277;DHT22;631;51.024;13.826;2023-03-01T00:25:19;-2.70;99.90
1277;DHT22;631;51.024;13.826;2023-03-01T00:27:46;-2.80;99.90
1277;DHT22;631;51.024;13.826;2023-03-01T00:30:12;-2.80;99.90
1277;DHT22;631;51.024;13.826;2023-03-01T00:32:38;-2.80;99.90
1277;DHT22;631;51.024;13.826;2023-03-01T00:35:03;-2.80;99.90
1277;DHT22;631;51.024;13.826;2023-03-01T00:37:31;-2.80;99.90
1277;DHT22;631;51.024;13.826;2023-03-01T00:39:56;-2.90;99.90
1277;DHT22;631;51.024;13.826;2023-03-01T00:42:22;-2.90;99.90
1277;DHT22;631;51.024;13.826;2023-03-01T00:44:48;-2.90;99.90
1277;DHT22;631;51.024;13.826;2023-03-01T00:47:14;-2.90;99.90
1277;DHT22;631;51.024;13.826;2023-03-01T00:49:39;-2.90;99.90
1277;DHT22;631;51.024;13.826;2023-03-01T00:52:05;-3.00;99.90
1277;DHT22;631;51.024;13.826;2023-03-01T00:54:31;-3.00;99.90
1277;DHT22;631;51.024;13.826;2023-03-01T00:56:56;-3.00;99.90
1277;DHT22;631;51.024;13.826;2023-03-01T00:59:22;-3.00;99.90
1277;DHT22;631;51.024;13.826;2023-03-01T01:01:48;-3.00;99.90
1277;DHT22;631;51.024;13.826;2023-03-01T01:04:14;-3.10;99.90
1277;DHT22;631;51.024;13.826;2023-03-01T01:06:44;-3.10;99.90
1277;DHT22;631;51.024;13.826;2023-03-01T01:09:12;-3.10;99.90
1277;DHT22;631;51.024;13.826;2023-03-01T01:11:43;-3.10;99.90
1277;DHT22;631;51.024;13.826;2023-03-01T01:14:09;-3.10;99.90
1277;DHT22;631;51.024;13.826;2023-03-01T01:16:35;-3.10;99.90
1277;DHT22;631;51.024;13.826;2023-03-01T01:19:01;-3.20;99.90
1277;DHT22;631;51.024;13.826;2023-03-01T01:21:27;-3.20;99.90
1277;DHT22;631;51.024;13.826;2023-03-01T01:23:54;-3.20;99.90
1277;DHT22;631;51.024;13.826;2023-03-01T01:26:25;-3.20;99.90
1277;DHT22;631;51.024;13.826;2023-03-01T01:28:51;-3.20;99.90
1277;DHT22;631;51.024;13.826;2023-03-01T01:31:18;-3.20;99.90
1277;DHT22;631;51.024;13.826;2023-03-01T01:33:43;-3.20;99.90
1277;DHT22;631;51.024;13.826;2023-03-01T01:36:10;-3.20;99.90
1277;DHT22;631;51.024;13.826;2023-03-01T01:38:37;-3.20;99.90
1277;DHT22;631;51.024;13.826;2023-03-01T01:41:04;-3.20;99.90
1277;DHT22;631;51.024;13.826;2023-03-01T01:43:36;-3.20;99.90
1277;DHT22;631;51.024;13.826;2023-03-01T01:46:26;-3.30;99.90
1277;DHT22;631;51.024;13.826;2023-03-01T01:48:55;-3.30;99.90
1277;DHT22;631;51.024;13.826;2023-03-01T01:51:28;-3.30;99.90
1277;DHT22;631;51.024;13.826;2023-03-01T01:54:07;-3.30;99.90
1277;DHT22;631;51.024;13.826;2023-03-01T01:56:33;-3.40;99.90
1277;DHT22;631;51.024;13.826;2023-03-01T01:59:00;-3.40;99.90
1277;DHT22;631;51.024;13.826;2023-03-01T02:01:26;-3.40;99.90
1277;DHT22;631;51.024;13.826;2023-03-01T02:03:52;-3.30;99.90
1277;DHT22;631;51.024;13.826;2023-03-01T02:06:41;-3.30;99.90
1277;DHT22;631;51.024;13.826;2023-03-01T02:09:13;-3.30;99.90
1277;DHT22;631;51.024;13.826;2023-03-01T02:11:41;-3.40;99.90
1277;DHT22;631;51.024;13.826;2023-03-01T02:14:07;-3.40;99.90
1277;DHT22;631;51.024;13.826;2023-03-01T02:16:32;-3.50;99.90
1277;DHT22;631;51.024;13.826;2023-03-01T02:18:59;-3.50;99.90
1277;DHT22;631;51.024;13.826;2023-03-01T02:24:42;-3.50;99.90
1277;DHT22;631;51.024;13.826;2023-03-01T02:27:15;-3.50;99.90
1277;DHT22;631;51.024;13.826;2023-03-01T02:29:42;-3.60;99.90
1277;DHT22;631;51.024;13.826;2023-03-01T02:32:11;-3.50;99.90
1277;DHT22;631;51.024;13.826;2023-03-01T02:34:37;-3.60;99.90
1277;DHT22;631;51.024;13.826;2023-03-01T02:37:09;-3.70;99.90
1277;DHT22;631;51.024;13.826;2023-03-01T02:39:44;-3.60;99.90
1277;DHT22;631;51.024;13.826;2023-03-01T02:42:14;-3.70;99.90
1277;DHT22;631;51.024;13.826;2023-03-01T02:44:41;-3.80;99.90
1277;DHT22;631;51.024;13.826;2023-03-01T02:47:06;-3.80;99.90
1277;DHT22;631;51.024;13.826;2023-03-01T02:49:34;-3.80;99.90
1277;DHT22;631;51.024;13.826;2023-03-01T02:54:52;-3.90;99.90
1277;DHT22;631;51.024;13.826;2023-03-01T02:57:20;-3.90;99.90
1277;DHT22;631;51.024;13.826;2023-03-01T02:59:47;-3.90;99.90
1277;DHT22;631;51.024;13.826;2023-03-01T03:02:22;-3.90;99.90
1277;DHT22;631;51.024;13.826;2023-03-01T03:05:09;-3.90;99.90
1277;DHT22;631;51.024;13.826;2023-03-01T03:07:40;-3.90;99.90
1277;DHT22;631;51.024;13.826;2023-03-01T03:10:10;-4.00;99.90
1277;DHT22;631;51.024;13.826;2023-03-01T03:12:37;-4.00;99.90
1277;DHT22;631;51.024;13.826;2023-03-01T03:15:04;-4.00;99.90
1277;DHT22;631;51.024;13.826;2023-03-01T03:17:35;-4.00;99.90
1277;DHT22;631;51.024;13.826;2023-03-01T03:20:01;-3.90;99.90
1277;DHT22;631;51.024;13.826;2023-03-01T03:22:28;-4.00;99.90
1277;DHT22;631;51.024;13.826;2023-03-01T03:24:54;-4.10;99.90
1277;DHT22;631;51.024;13.826;2023-03-01T03:27:19;-4.00;99.90
1277;DHT22;631;51.024;13.826;2023-03-01T03:29:45;-4.00;99.90
1277;DHT22;631;51.024;13.826;2023-03-01T03:32:10;-4.10;99.90
1277;DHT22;631;51.024;13.826;2023-03-01T03:34:36;-4.10;99.90
1277;DHT22;631;51.024;13.826;2023-03-01T03:37:01;-4.10;99.90
1277;DHT22;631;51.024;13.826;2023-03-01T03:39:28;-4.10;99.90
1277;DHT22;631;51.024;13.826;2023-03-01T03:42:00;-4.20;99.90
1277;DHT22;631;51.024;13.826;2023-03-01T03:44:26;-4.10;99.90
1277;DHT22;631;51.024;13.826;2023-03-01T03:46:51;-4.20;99.90
1277;DHT22;631;51.024;13.826;2023-03-01T03:49:17;-4.20;99.90
1277;DHT22;631;51.024;13.826;2023-03-01T03:51:45;-4.20;99.90
1277;DHT22;631;51.024;13.826;2023-03-01T03:54:10;-4.20;99.90
1277;DHT22;631;51.024;13.826;2023-03-01T03:56:36;-4.30;99.90
1277;DHT22;631;51.024;13.826;2023-03-01T03:59:02;-4.30;99.90
1277;DHT22;631;51.024;13.826;2023-03-01T04:01:27;-4.30;99.90
1277;DHT22;631;51.024;13.826;2023-03-01T04:03:53;-4.40;99.90
1277;DHT22;631;51.024;13.826;2023-03-01T04:06:20;-4.30;99.90
1277;DHT22;631;51.024;13.826;2023-03-01T04:08:45;-4.30;99.90
1277;DHT22;631;51.024;13.826;2023-03-01T04:11:11;-4.40;99.90
1277;DHT22;631;51.024;13.826;2023-03-01T04:13:56;-4.30;99.90
1277;DHT22;631;51.024;13.826;2023-03-01T04:16:22;-4.40;99.90
1277;DHT22;631;51.024;13.826;2023-03-01T04:18:48;-4.40;99.90
1277;DHT22;631;51.024;13.826;2023-03-01T04:21:14;-4.40;99.90
1277;DHT22;631;51.024;13.826;2023-03-01T04:23:40;-4.40;99.90
1277;DHT22;631;51.024;13.826;2023-03-01T04:26:06;-4.40;99.90
1277;DHT22;631;51.024;13.826;2023-03-01T04:28:37;-4.40;99.90
1277;DHT22;631;51.024;13.826;2023-03-01T04:31:08;-4.40;99.90
1277;DHT22;631;51.024;13.826;2023-03-01T04:33:41;-4.40;99.90
1277;DHT22;631;51.024;13.826;2023-03-01T04:36:09;-4.40;99.90
1277;DHT22;631;51.024;13.826;2023-03-01T04:38:36;-4.50;99.90
1277;DHT22;631;51.024;13.826;2023-03-01T04:41:06;-4.50;99.90
1277;DHT22;631;51.024;13.826;2023-03-01T04:43:32;-4.50;99.90
1277;DHT22;631;51.024;13.826;2023-03-01T04:46:04;-4.60;99.90
1277;DHT22;631;51.024;13.826;2023-03-01T04:48:31;-4.60;99.90
1277;DHT22;631;51.024;13.826;2023-03-01T04:50:59;-4.60;99.90
1277;DHT22;631;51.024;13.826;2023-03-01T04:53:25;-4.60;99.90
1277;DHT22;631;51.024;13.826;2023-03-01T04:55:51;-4.60;99.90
1277;DHT22;631;51.024;13.826;2023-03-01T04:58:17;-4.70;99.90
1277;DHT22;631;51.024;13.826;2023-03-01T05:00:42;-4.70;99.90
1277;DHT22;631;51.024;13.826;2023-03-01T05:03:08;-4.70;99.90
1277;DHT22;631;51.024;13.826;2023-03-01T05:05:38;-4.70;99.90
1277;DHT22;631;51.024;13.826;2023-03-01T05:08:06;-4.70;99.90
1277;DHT22;631;51.024;13.826;2023-03-01T05:10:34;-4.80;99.90
1277;DHT22;631;51.024;13.826;2023-03-01T05:13:01;-4.70;99.90
1277;DHT22;631;51.024;13.826;2023-03-01T05:15:29;-4.70;99.90
1277;DHT22;631;51.024;13.826;2023-03-01T05:17:58;-4.70;99.90
1277;DHT22;631;51.024;13.826;2023-03-01T05:20:28;-4.70;99.90
1277;DHT22;631;51.024;13.826;2023-03-01T05:22:59;-4.70;99.90
1277;DHT22;631;51.024;13.826;2023-03-01T05:25:25;-4.70;99.90
1277;DHT22;631;51.024;13.826;2023-03-01T05:27:51;-4.70;99.90
1277;DHT22;631;51.024;13.826;2023-03-01T05:30:17;-4.70;99.90
1277;DHT22;631;51.024;13.826;2023-03-01T05:36:12;-4.70;99.90
1277;DHT22;631;51.024;13.826;2023-03-01T05:39:07;-4.70;99.90
1277;DHT22;631;51.024;13.826;2023-03-01T05:41:33;-4.70;99.90
1277;DHT22;631;51.024;13.826;2023-03-01T05:43:58;-4.70;99.90
1277;DHT22;631;51.024;13.826;2023-03-01T05:46:24;-4.80;99.90
1277;DHT22;631;51.024;13.826;2023-03-01T05:48:50;-4.80;99.90
1277;DHT22;631;51.024;13.826;2023-03-01T05:51:15;-4.80;99.90
1277;DHT22;631;51.024;13.826;2023-03-01T05:53:41;-4.80;99.90
1277;DHT22;631;51.024;13.826;2023-03-01T05:56:07;-4.90;99.90
1277;DHT22;631;51.024;13.826;2023-03-01T05:58:34;-4.90;99.90
1277;DHT22;631;51.024;13.826;2023-03-01T06:00:59;-4.90;99.90
1277;DHT22;631;51.024;13.826;2023-03-01T06:03:25;-4.90;99.90
1277;DHT22;631;51.024;13.826;2023-03-01T06:05:57;-4.90;99.90
1277;DHT22;631;51.024;13.826;2023-03-01T06:08:23;-4.90;99.90
1277;DHT22;631;51.024;13.826;2023-03-01T06:10:51;-4.90;99.90
1277;DHT22;631;51.024;13.826;2023-03-01T06:13:17;-4.90;99.90
1277;DHT22;631;51.024;13.826;2023-03-01T06:15:43;-4.90;99.90
1277;DHT22;631;51.024;13.826;2023-03-01T06:18:08;-4.90;99.90
1277;DHT22;631;51.024;13.826;2023-03-01T06:20:34;-4.90;99.90
1277;DHT22;631;51.024;13.826;2023-03-01T06:23:00;-4.90;99.90
1277;DHT22;631;51.024;13.826;2023-03-01T06:25:27;-4.90;99.90
1277;DHT22;631;51.024;13.826;2023-03-01T06:27:53;-4.80;99.90
1277;DHT22;631;51.024;13.826;2023-03-01T06:30:20;-4.80;99.90
1277;DHT22;631;51.024;13.826;2023-03-01T06:32:47;-4.70;99.90
1277;DHT22;631;51.024;13.826;2023-03-01T06:35:14;-4.60;99.90
1277;DHT22;631;51.024;13.826;2023-03-01T06:37:43;-4.60;99.90
1277;DHT22;631;51.024;13.826;2023-03-01T06:40:10;-4.60;99.90
1277;DHT22;631;51.024;13.826;2023-03-01T06:42:39;-4.50;99.90
1277;DHT22;631;51.024;13.826;2023-03-01T06:45:06;-4.50;99.90
1277;DHT22;631;51.024;13.826;2023-03-01T06:47:32;-4.50;99.90
1277;DHT22;631;51.024;13.826;2023-03-01T06:49:59;-4.40;99.90
1277;DHT22;631;51.024;13.826;2023-03-01T06:52:25;-4.40;99.90
1277;DHT22;631;51.024;13.826;2023-03-01T06:54:50;-4.40;99.90
1277;DHT22;631;51.024;13.826;2023-03-01T06:57:17;-4.30;99.90
1277;DHT22;631;51.024;13.826;2023-03-01T06:59:43;-4.30;99.90
1277;DHT22;631;51.024;13.826;2023-03-01T07:02:12;-4.30;99.90
1277;DHT22;631;51.024;13.826;2023-03-01T07:04:39;-4.30;99.90
1277;DHT22;631;51.024;13.826;2023-03-01T07:07:05;-4.20;99.90
1277;DHT22;631;51.024;13.826;2023-03-01T07:09:30;-4.20;99.90
1277;DHT22;631;51.024;13.826;2023-03-01T07:11:56;-4.20;99.90
1277;DHT22;631;51.024;13.826;2023-03-01T07:14:22;-4.30;99.90
1277;DHT22;631;51.024;13.826;2023-03-01T07:16:54;-4.20;99.90
1277;DHT22;631;51.024;13.826;2023-03-01T07:19:20;-4.10;99.90
1277;DHT22;631;51.024;13.826;2023-03-01T07:21:47;-4.00;99.90
1277;DHT22;631;51.024;13.826;2023-03-01T07:24:13;-4.00;99.90
1277;DHT22;631;51.024;13.826;2023-03-01T07:26:38;-3.90;99.90
1277;DHT22;631;51.024;13.826;2023-03-01T07:29:07;-3.80;99.90
1277;DHT22;631;51.024;13.826;2023-03-01T07:31:34;-3.80;99.90
1277;DHT22;631;51.024;13.826;2023-03-01T07:34:00;-3.70;99.90
1277;DHT22;631;51.024;13.826;2023-03-01T07:36:25;-3.70;99.90
1277;DHT22;631;51.024;13.826;2023-03-01T07:38:52;-3.60;99.90
1277;DHT22;631;51.024;13.826;2023-03-01T07:41:18;-3.60;99.90
1277;DHT22;631;51.024;13.826;2023-03-01T07:43:44;-3.50;99.90
1277;DHT22;631;51.024;13.826;2023-03-01T07:46:09;-3.40;99.90
1277;DHT22;631;51.024;13.826;2023-03-01T07:48:35;-3.30;99.90
1277;DHT22;631;51.024;13.826;2023-03-01T07:51:03;-3.10;99.90
1277;DHT22;631;51.024;13.826;2023-03-01T07:53:29;-3.10;99.90
1277;DHT22;631;51.024;13.826;2023-03-01T07:56:08;-3.00;99.90
1277;DHT22;631;51.024;13.826;2023-03-01T07:58:35;-2.80;99.90
1277;DHT22;631;51.024;13.826;2023-03-01T08:01:03;-2.70;99.90
1277;DHT22;631;51.024;13.826;2023-03-01T08:03:29;-2.50;99.90
1277;DHT22;631;51.024;13.826;2023-03-01T08:05:55;-2.40;99.90
1277;DHT22;631;51.024;13.826;2023-03-01T08:08:20;-2.20;99.90
1277;DHT22;631;51.024;13.826;2023-03-01T08:10:46;-2.10;99.90
1277;DHT22;631;51.024;13.826;2023-03-01T08:13:12;-1.90;99.90
1277;DHT22;631;51.024;13.826;2023-03-01T08:15:37;-1.60;99.90
1277;DHT22;631;51.024;13.826;2023-03-01T08:18:03;-1.30;99.90
1277;DHT22;631;51.024;13.826;2023-03-01T08:20:28;-1.20;99.90
1277;DHT22;631;51.024;13.826;2023-03-01T08:22:54;-0.90;99.90
1277;DHT22;631;51.024;13.826;2023-03-01T08:25:20;-0.60;99.90
1277;DHT22;631;51.024;13.826;2023-03-01T08:27:45;0.00;99.90
1277;DHT22;631;51.024;13.826;2023-03-01T08:30:11;0.70;99.90
1277;DHT22;631;51.024;13.826;2023-03-01T08:32:38;1.20;99.90
1277;DHT22;631;51.024;13.826;2023-03-01T08:35:05;1.70;99.90
1277;DHT22;631;51.024;13.826;2023-03-01T08:37:30;2.00;99.90
1277;DHT22;631;51.024;13.826;2023-03-01T08:39:59;2.70;99.90
1277;DHT22;631;51.024;13.826;2023-03-01T08:42:25;3.30;99.90
1277;DHT22;631;51.024;13.826;2023-03-01T08:44:51;3.90;99.90
1277;DHT22;631;51.024;13.826;2023-03-01T08:47:16;4.40;99.30
1277;DHT22;631;51.024;13.826;2023-03-01T08:49:42;5.00;98.10
1277;DHT22;631;51.024;13.826;2023-03-01T08:52:08;5.60;95.50
1277;DHT22;631;51.024;13.826;2023-03-01T08:54:33;5.80;92.80
1277;DHT22;631;51.024;13.826;2023-03-01T08:57:01;6.00;89.90
1277;DHT22;631;51.024;13.826;2023-03-01T08:59:27;6.20;84.90
1277;DHT22;631;51.024;13.826;2023-03-01T09:01:55;6.40;81.40
1277;DHT22;631;51.024;13.826;2023-03-01T09:04:21;6.80;78.90
1277;DHT22;631;51.024;13.826;2023-03-01T09:06:47;7.00;78.20
1277;DHT22;631;51.024;13.826;2023-03-01T09:09:17;7.50;76.80
1277;DHT22;631;51.024;13.826;2023-03-01T09:11:43;7.60;71.50
1277;DHT22;631;51.024;13.826;2023-03-01T09:14:12;8.10;70.50
1277;DHT22;631;51.024;13.826;2023-03-01T09:16:38;8.40;66.10
1277;DHT22;631;51.024;13.826;2023-03-01T09:19:04;8.60;61.00
1277;DHT22;631;51.024;13.826;2023-03-01T09:21:31;9.20;60.90
1277;DHT22;631;51.024;13.826;2023-03-01T09:23:57;9.20;55.00
1277;DHT22;631;51.024;13.826;2023-03-01T09:26:24;9.00;55.70
1277;DHT22;631;51.024;13.826;2023-03-01T09:28:51;9.10;57.20
1277;DHT22;631;51.024;13.826;2023-03-01T09:31:21;10.00;54.60
1277;DHT22;631;51.024;13.826;2023-03-01T09:33:49;10.10;52.30
1277;DHT22;631;51.024;13.826;2023-03-01T09:36:21;10.20;51.00
1277;DHT22;631;51.024;13.826;2023-03-01T09:38:48;10.30;50.50
1277;DHT22;631;51.024;13.826;2023-03-01T09:43:48;10.60;49.40
1277;DHT22;631;51.024;13.826;2023-03-01T09:46:20;10.60;49.10
1277;DHT22;631;51.024;13.826;2023-03-01T09:49:04;10.60;50.30
1277;DHT22;631;51.024;13.826;2023-03-01T09:51:34;10.60;48.50
1277;DHT22;631;51.024;13.826;2023-03-01T09:54:04;10.50;48.30
1277;DHT22;631;51.024;13.826;2023-03-01T09:57:12;11.00;49.00
1277;DHT22;631;51.024;13.826;2023-03-01T10:00:00;11.40;47.30
1277;DHT22;631;51.024;13.826;2023-03-01T10:02:48;11.80;47.30
1277;DHT22;631;51.024;13.826;2023-03-01T10:08:31;12.40;44.40
1277;DHT22;631;51.024;13.826;2023-03-01T10:10:59;12.60;43.20
1277;DHT22;631;51.024;13.826;2023-03-01T10:13:43;12.30;43.30
1277;DHT22;631;51.024;13.826;2023-03-01T10:16:28;12.70;42.80
1277;DHT22;631;51.024;13.826;2023-03-01T10:19:02;13.20;41.80
1277;DHT22;631;51.024;13.826;2023-03-01T10:21:29;13.50;41.20
1277;DHT22;631;51.024;13.826;2023-03-01T10:24:05;13.80;39.30
1277;DHT22;631;51.024;13.826;2023-03-01T10:26:56;14.10;38.10
1277;DHT22;631;51.024;13.826;2023-03-01T10:29:31;13.70;37.30
1277;DHT22;631;51.024;13.826;2023-03-01T10:31:59;14.30;38.00
1277;DHT22;631;51.024;13.826;2023-03-01T10:34:31;14.30;37.00
1277;DHT22;631;51.024;13.826;2023-03-01T10:37:17;14.50;35.60
1277;DHT22;631;51.024;13.826;2023-03-01T10:40:05;14.80;35.90
1277;DHT22;631;51.024;13.826;2023-03-01T10:42:47;15.00;34.50
1277;DHT22;631;51.024;13.826;2023-03-01T10:50:31;15.30;32.10
1277;DHT22;631;51.024;13.826;2023-03-01T10:53:03;15.90;30.80
1277;DHT22;631;51.024;13.826;2023-03-01T10:55:38;16.20;30.70
1277;DHT22;631;51.024;13.826;2023-03-01T10:58:22;16.30;30.50
1277;DHT22;631;51.024;13.826;2023-03-01T11:00:52;17.00;29.10
1277;DHT22;631;51.024;13.826;2023-03-01T11:03:22;17.40;27.90
1277;DHT22;631;51.024;13.826;2023-03-01T11:05:57;17.50;26.90
1277;DHT22;631;51.024;13.826;2023-03-01T11:13:31;16.70;27.70
1277;DHT22;631;51.024;13.826;2023-03-01T11:16:06;16.70;27.80
1277;DHT22;631;51.024;13.826;2023-03-01T11:18:33;17.20;27.00
1277;DHT22;631;51.024;13.826;2023-03-01T11:20:59;17.20;27.40
1277;DHT22;631;51.024;13.826;2023-03-01T11:23:30;17.10;27.40
1277;DHT22;631;51.024;13.826;2023-03-01T11:26:00;17.30;27.10
1277;DHT22;631;51.024;13.826;2023-03-01T11:28:28;17.00;26.50
1277;DHT22;631;51.024;13.826;2023-03-01T11:31:01;16.60;27.10
1277;DHT22;631;51.024;13.826;2023-03-01T11:38:39;17.90;27.40
1277;DHT22;631;51.024;13.826;2023-03-01T11:41:14;18.00;27.00
1277;DHT22;631;51.024;13.826;2023-03-01T11:43:57;18.40;26.00
1277;DHT22;631;51.024;13.826;2023-03-01T11:59:44;17.60;25.80
1277;DHT22;631;51.024;13.826;2023-03-01T12:11:48;18.10;25.10
1277;DHT22;631;51.024;13.826;2023-03-01T12:22:44;16.90;26.30
1277;DHT22;631;51.024;13.826;2023-03-01T12:25:31;17.30;26.10
1277;DHT22;631;51.024;13.826;2023-03-01T12:39:42;17.10;26.50
1277;DHT22;631;51.024;13.826;2023-03-01T12:42:34;17.80;26.50
1277;DHT22;631;51.024;13.826;2023-03-01T12:45:20;17.60;26.40
1277;DHT22;631;51.024;13.826;2023-03-01T12:50:41;17.70;25.70
1277;DHT22;631;51.024;13.826;2023-03-01T12:55:44;18.80;24.90
1277;DHT22;631;51.024;13.826;2023-03-01T12:58:33;18.60;24.60
1277;DHT22;631;51.024;13.826;2023-03-01T13:09:39;18.00;25.00
1277;DHT22;631;51.024;13.826;2023-03-01T13:15:28;17.70;26.20
1277;DHT22;631;51.024;13.826;2023-03-01T13:17:58;18.00;25.50
1277;DHT22;631;51.024;13.826;2023-03-01T13:25:31;17.20;24.40
1277;DHT22;631;51.024;13.826;2023-03-01T13:30:58;17.30;24.40
1277;DHT22;631;51.024;13.826;2023-03-01T13:35:53;17.40;24.50
1277;DHT22;631;51.024;13.826;2023-03-01T13:47:03;16.90;25.00
1277;DHT22;631;51.024;13.826;2023-03-01T13:54:59;17.00;24.30
1277;DHT22;631;51.024;13.826;2023-03-01T13:57:32;16.90;25.00
1277;DHT22;631;51.024;13.826;2023-03-01T13:59:59;16.90;25.00
1277;DHT22;631;51.024;13.826;2023-03-01T14:02:25;16.90;24.80
1277;DHT22;631;51.024;13.826;2023-03-01T14:04:58;16.70;24.30
1277;DHT22;631;51.024;13.826;2023-03-01T14:07:24;16.40;25.10
1277;DHT22;631;51.024;13.826;2023-03-01T14:09:57;16.20;25.60
1277;DHT22;631;51.024;13.826;2023-03-01T14:12:40;16.20;26.50
1277;DHT22;631;51.024;13.826;2023-03-01T14:15:33;16.10;27.90
1277;DHT22;631;51.024;13.826;2023-03-01T14:20:44;16.00;24.90
1277;DHT22;631;51.024;13.826;2023-03-01T14:23:19;15.90;25.70
1277;DHT22;631;51.024;13.826;2023-03-01T14:25:52;16.00;25.70
1277;DHT22;631;51.024;13.826;2023-03-01T14:28:30;16.10;25.90
1277;DHT22;631;51.024;13.826;2023-03-01T14:31:00;16.20;25.80
1277;DHT22;631;51.024;13.826;2023-03-01T14:38:32;15.70;25.80
1277;DHT22;631;51.024;13.826;2023-03-01T14:41:03;15.80;26.70
1277;DHT22;631;51.024;13.826;2023-03-01T14:43:30;15.60;26.30
1277;DHT22;631;51.024;13.826;2023-03-01T14:45:56;16.00;26.50
1277;DHT22;631;51.024;13.826;2023-03-01T14:48:22;16.30;26.60
1277;DHT22;631;51.024;13.826;2023-03-01T14:50:50;15.90;25.80
1277;DHT22;631;51.024;13.826;2023-03-01T14:53:23;15.70;26.70
1277;DHT22;631;51.024;13.826;2023-03-01T14:55:53;15.30;26.80
1277;DHT22;631;51.024;13.826;2023-03-01T14:58:23;15.20;27.70
1277;DHT22;631;51.024;13.826;2023-03-01T15:00:58;15.30;28.30
1277;DHT22;631;51.024;13.826;2023-03-01T15:03:34;14.60;27.70
1277;DHT22;631;51.024;13.826;2023-03-01T15:06:02;14.10;27.90
1277;DHT22;631;51.024;13.826;2023-03-01T15:08:28;13.90;29.30
1277;DHT22;631;51.024;13.826;2023-03-01T15:13:30;13.70;29.40
1277;DHT22;631;51.024;13.826;2023-03-01T15:16:20;13.70;29.90
1277;DHT22;631;51.024;13.826;2023-03-01T15:18:56;13.50;29.80
1277;DHT22;631;51.024;13.826;2023-03-01T15:26:57;12.90;31.10
1277;DHT22;631;51.024;13.826;2023-03-01T15:29:33;12.70;31.30
1277;DHT22;631;51.024;13.826;2023-03-01T15:32:30;12.50;30.70
1277;DHT22;631;51.024;13.826;2023-03-01T15:34:59;12.50;31.30
1277;DHT22;631;51.024;13.826;2023-03-01T15:37:46;12.00;31.60
1277;DHT22;631;51.024;13.826;2023-03-01T15:40:28;11.90;31.90
1277;DHT22;631;51.024;13.826;2023-03-01T15:43:05;11.40;32.30
1277;DHT22;631;51.024;13.826;2023-03-01T15:45:32;10.80;33.10
1277;DHT22;631;51.024;13.826;2023-03-01T15:48:15;10.50;34.90
1277;DHT22;631;51.024;13.826;2023-03-01T15:50:43;10.40;35.40
1277;DHT22;631;51.024;13.826;2023-03-01T15:53:13;10.30;37.50
1277;DHT22;631;51.024;13.826;2023-03-01T15:55:40;9.90;38.20
1277;DHT22;631;51.024;13.826;2023-03-01T15:58:21;9.70;40.10
1277;DHT22;631;51.024;13.826;2023-03-01T16:00:48;9.50;40.30
1277;DHT22;631;51.024;13.826;2023-03-01T16:03:16;9.40;41.70
1277;DHT22;631;51.024;13.826;2023-03-01T16:05:47;9.20;41.40
1277;DHT22;631;51.024;13.826;2023-03-01T16:08:13;8.80;44.10
1277;DHT22;631;51.024;13.826;2023-03-01T16:10:40;8.70;43.10
1277;DHT22;631;51.024;13.826;2023-03-01T16:13:06;8.60;43.70
1277;DHT22;631;51.024;13.826;2023-03-01T16:15:33;8.30;44.30
1277;DHT22;631;51.024;13.826;2023-03-01T16:18:02;8.30;45.50
1277;DHT22;631;51.024;13.826;2023-03-01T16:20:29;8.10;45.10
1277;DHT22;631;51.024;13.826;2023-03-01T16:22:59;7.90;45.50
1277;DHT22;631;51.024;13.826;2023-03-01T16:25:28;7.70;45.50
1277;DHT22;631;51.024;13.826;2023-03-01T16:27:54;7.60;48.30
1277;DHT22;631;51.024;13.826;2023-03-01T16:30:22;7.40;49.50
1277;DHT22;631;51.024;13.826;2023-03-01T16:32:48;7.30;48.70
1277;DHT22;631;51.024;13.826;2023-03-01T16:35:16;7.10;49.10
1277;DHT22;631;51.024;13.826;2023-03-01T16:37:43;7.00;49.40
1277;DHT22;631;51.024;13.826;2023-03-01T16:40:18;6.80;49.30
1277;DHT22;631;51.024;13.826;2023-03-01T16:42:49;6.60;51.80
1277;DHT22;631;51.024;13.826;2023-03-01T16:45:15;6.50;52.40
1277;DHT22;631;51.024;13.826;2023-03-01T16:47:41;6.30;52.20
1277;DHT22;631;51.024;13.826;2023-03-01T16:50:10;6.20;53.80
1277;DHT22;631;51.024;13.826;2023-03-01T16:52:36;6.10;55.30
1277;DHT22;631;51.024;13.826;2023-03-01T16:55:05;5.90;56.60
1277;DHT22;631;51.024;13.826;2023-03-01T16:57:33;5.80;61.90
1277;DHT22;631;51.024;13.826;2023-03-01T16:59:59;5.70;63.20
1277;DHT22;631;51.024;13.826;2023-03-01T17:02:25;5.50;63.60
1277;DHT22;631;51.024;13.826;2023-03-01T17:04:52;5.30;65.50
1277;DHT22;631;51.024;13.826;2023-03-01T17:07:18;5.20;67.00
1277;DHT22;631;51.024;13.826;2023-03-01T17:09:44;5.10;73.30
1277;DHT22;631;51.024;13.826;2023-03-01T17:12:12;4.90;77.50
1277;DHT22;631;51.024;13.826;2023-03-01T17:14:38;4.80;79.90
1277;DHT22;631;51.024;13.826;2023-03-01T17:17:10;4.70;80.00
1277;DHT22;631;51.024;13.826;2023-03-01T17:19:36;4.50;84.20
1277;DHT22;631;51.024;13.826;2023-03-01T17:22:07;4.40;90.70
1277;DHT22;631;51.024;13.826;2023-03-01T17:24:34;4.40;93.60
1277;DHT22;631;51.024;13.826;2023-03-01T17:26:59;4.40;92.90
1277;DHT22;631;51.024;13.826;2023-03-01T17:29:25;4.20;92.70
1277;DHT22;631;51.024;13.826;2023-03-01T17:31:51;4.10;92.80
1277;DHT22;631;51.024;13.826;2023-03-01T17:34:19;4.00;93.60
1277;DHT22;631;51.024;13.826;2023-03-01T17:36:44;3.90;93.70
1277;DHT22;631;51.024;13.826;2023-03-01T17:39:11;3.80;95.80
1277;DHT22;631;51.024;13.826;2023-03-01T17:41:37;3.60;95.90
1277;DHT22;631;51.024;13.826;2023-03-01T17:44:02;3.50;97.40
1277;DHT22;631;51.024;13.826;2023-03-01T17:46:28;3.40;98.00
1277;DHT22;631;51.024;13.826;2023-03-01T17:48:54;3.30;98.70
1277;DHT22;631;51.024;13.826;2023-03-01T17:51:19;3.30;99.00
1277;DHT22;631;51.024;13.826;2023-03-01T17:53:45;3.10;99.30
1277;DHT22;631;51.024;13.826;2023-03-01T17:56:11;3.00;99.90
1277;DHT22;631;51.024;13.826;2023-03-01T17:58:37;3.00;99.90
1277;DHT22;631;51.024;13.826;2023-03-01T18:01:15;2.90;99.90
1277;DHT22;631;51.024;13.826;2023-03-01T18:03:42;2.80;99.90
1277;DHT22;631;51.024;13.826;2023-03-01T18:06:17;2.70;99.90
1277;DHT22;631;51.024;13.826;2023-03-01T18:08:44;2.60;99.90
1277;DHT22;631;51.024;13.826;2023-03-01T18:11:10;2.50;99.90
1277;DHT22;631;51.024;13.826;2023-03-01T18:13:36;2.40;99.90
1277;DHT22;631;51.024;13.826;2023-03-01T18:16:05;2.40;99.90
1277;DHT22;631;51.024;13.826;2023-03-01T18:18:31;2.30;99.90
1277;DHT22;631;51.024;13.826;2023-03-01T18:20:57;2.30;99.90
1277;DHT22;631;51.024;13.826;2023-03-01T18:23:23;2.20;99.90
1277;DHT22;631;51.024;13.826;2023-03-01T18:25:50;2.10;99.90
1277;DHT22;631;51.024;13.826;2023-03-01T18:28:18;2.00;99.90